LFKF 181630Z AUTO 04011KT 9999 FEW046 BKN078 29/20 Q1008 BECMG 26015G27KT

ElémentsDécodage
LFKF Station météo située sur l'aérodrome de FIGARI Sud-Corse
181630Z émis le 18 du mois à 16h30 UTC
AUTO Bulletin édité par un automate
04011KT vent du 040°, 11 noeuds
9999 visibilité horizontale supérieure à 10 Km
FEW046 nuages rares (1/8 à 2/8) à 4600 pieds
BKN078 nuages morcelés (5/8 à 7/8) à 7800 pieds
29/20 température 29°C, point de rosée 20°C
 soit une humidité relative de 58%
Q1008 la pression au niveau de la mer (QNH) est de 1008 hPa
BECMG fluctuation du temps prévue
26015G27KT vent du 260°, moyenne: 15 noeuds, avec rafales à 27 noeuds